AirNav   Air Wisconsin pilot careers
 
 798 users online  

65J Wrens Memorial Airport
Wrens, Georgia, USA

GOING TO WRENS?


FAA INFORMATION EFFECTIVE 26 APRIL 2018

Location

FAA Identifier: 65J
Lat/Long: 33-13-22.0000N / 082-23-04.2000W
33-13.366667N / 082-23.070000W
33.2227778 / -82.3845000
(estimated)
Elevation: 450 ft. / 137 m (estimated)
Variation: 03W (1985)
From city: 1 mile N of WRENS, GA
Time zone: UTC -4 (UTC -5 during Standard Time)
Zip code: 30833

Airport Operations

Airport use: Open to the public
Activation date: 10/1967
Control tower: no
ARTCC: ATLANTA CENTER
FSS: MACON FLIGHT SERVICE STATION
NOTAMs facility: MCN (NOTAM-D service available)
Attendance: UNATNDD
Wind indicator: lighted
Segmented circle: yes
Lights: ACTVT MIRL RY 11/29 - CTAF.
Beacon: white-green (lighted land airport)
ROTG BCN OTS INDEFLY. Operates sunset to sunrise.

Airport Communications

CTAF/UNICOM: 122.7
WX AWOS-3PT at 2J3 (14 nm S): 119.35 (478-625-8303)
WX AWOS-3 at HQU (20 nm N): 120.625 (706-597-9801)

Nearby radio navigation aids

VOR radial/distance  VOR name  Freq  Var
IRQr205/31.1COLLIERS VORTAC113.9004W

 
NDB name  Hdg/Dist  Freq  Var  ID
EMORY237/24.238504WEMR . -- .-.
MILLEN318/28.820505WLNH .-.. -. ....
EMANUEL COUNTY012/33.630906WEEX . . -..-
CULVR088/39.238004WUMB ..- -- -...
WASHINGTON/WILKES COUNTY150/39.543503WIIY .. .. -.--

Airport Services

Parking: tiedowns
Airframe service: NONE
Powerplant service: NONE
Bottled oxygen: NONE
Bulk oxygen: NONE

Runway Information

Runway 11/29

Dimensions: 3000 x 50 ft. / 914 x 15 m
Surface: asphalt, in good condition
Weight bearing capacity: 
Single wheel: 20.0
Runway edge lights: medium intensity
RUNWAY 11  RUNWAY 29
Latitude: 33-13.440667N33-13.292000N
Longitude: 082-23.350667W082-22.789167W
Gradient: 0.3%0.3%
Traffic pattern: leftleft
Markings: basic, in good conditionbasic, in good condition
Obstructions: 5 ft. gnd, 201 ft. from runway, 120 ft. right of centerline
3-5FT GROUND, 120FT R, 0-200FT FROM RY END.
12 ft. road, 440 ft. from runway, 145 ft. right of centerline, 20:1 slope to clear
SLOPE IS 34:1 TO THLD. ROAD 440' FROM E.O.R.

Airport Ownership and Management from official FAA records

Ownership: Publicly-owned
Owner: CITY OF WRENS
CITY HALL, PO BOX 125
WRENS, GA 30833
Phone 706-547-3000
Manager: ARTIE THRIFT
CITY HALL, PO BOX 125
WRENS, GA 30833
Phone 706-547-3000
CITY ADMINISTRATOR

Airport Operational Statistics

Aircraft based on the field: 9
Single engine airplanes: 9
    
Aircraft operations: avg 38/week *
60% local general aviation
40% transient general aviation
* for 12-month period ending 31 December 2017

Instrument Procedures

There are no published instrument procedures at 65J.

Some nearby airports with instrument procedures:

2J3 - Louisville Municipal Airport (14 nm S)
KHQU - Thomson-McDuffie County Airport (20 nm N)
KBXG - Burke County Airport (22 nm SE)
KDNL - Daniel Field Airport (23 nm NE)
KAGS - Augusta Regional Airport at Bush Field (23 nm NE)
 
Loc | Ops | Rwys | IFR | FBO | Links
Com | Nav | Svcs | Stats | Notes

AirNav Hotels Sweepstakes
 
Area around 65J (Wrens Memorial Airport)
 
Road maps at: MapQuest Bing Google
 
Aerial photo
WARNING: Photo may not be current or correct
Aerial photo of 65J (Wrens Memorial Airport)
Photo by Steven Amster
Photo taken 18-Feb-2013
looking north from 2200 ft MSL (1750 ft AGL) from his Cessna 172S.

Do you have a better or more recent aerial photo of Wrens Memorial Airport that you would like to share? If so, please send us your photo.

 
Sectional chart

 
Airport distance calculator
Flying to Wrens Memorial Airport? Find the distance to fly.

From to 65J

Sunrise and sunset
Times for 21-May-2018
 Local
(UTC-4)
 Zulu
(UTC)
Morning civil twilight05:5909:59
Sunrise06:2710:27
Sunset20:2500:25
Evening civil twilight20:5300:53

Current date and time
Zulu (UTC)  21-May-2018 12:05:54
Local (UTC-4)  21-May-2018 08:05:54
 
METAR
KHQU 
20nm N 
211155Z AUTO 00000KT 10SM SCT003 19/19 A3023 RMK AO2 T01930190 10204 20186 70005
KAGS 
23nm NE 
211153Z 00000KT 10SM FEW039 21/19 A3017 RMK AO2 SLP214 70001 T02060194 10206 20172 51014
KDNL 
23nm NE 
211153Z AUTO 06003KT 10SM CLR 22/18 A3018 RMK AO2 SLP216 70001 T02220183 10222 20200 51014
KOKZ 
27nm SW 
211155Z AUTO 11003KT 10SM 19/17 A3015 RMK AO2 T01860169 10186 20160
KSBO 
37nm S 
211155Z AUTO 07004KT 10SM OVC011 21/19 A3017 RMK AO2
TAF
KAGS 
23nm NE 
211137Z 2112/2212 VRB03KT P6SM SCT035 TEMPO 2112/2113 3SM BR FM211700 14006KT P6SM VCSH SCT040 BKN150 FM220200 15003KT P6SM BKN250
KDNL 
23nm NE 
211137Z 2112/2212 VRB03KT P6SM SCT035 FM211700 16006KT P6SM VCSH SCT040 BKN150 FM220200 15003KT P6SM BKN250
NOTAMs
Click for the latest NOTAMs
NOTAMs are issued by the DoD/FAA and will open in a separate window not controlled by AirNav.

 

 
 

Aviation Businesses, Services, and Facilities

  
 Business Name 
 
 Contact 
 
 Services / Description 
 
Distance
 
Comments
  
EAA Chapter 172 762-245-8103
[web site]
[email]
Aircraft parking (ramp or tiedown), Passenger terminal and lounge, Flying club, Organization with aviation interests, Pilots lounge / snooze room, Restrooms, ...

More info about EAA Chapter 172
on airport  
   write
 

Would you like to see your business listed on this page?

 If your business provides an interesting product or service to pilots, flight crews, aircraft, or users of the Wrens Memorial Airport, you should consider listing it here.  To start the listing process, click on the button below
 
Add a business
 

Other Pages about Wrens Memorial Airport

jcmservices.net/wrensinf.htm
www.jcmservices.net/65j2.htm
 
Update a link
 
Copyright © AirNav, LLC. All rights reserved. Privacy Policy  Contact